Time;durP1;ratioP1;P1;durP2;ratioP2;P2;SDS_P1;SDS_P2;PMS_P1;PMS_P2;Temp;Humidity;BMP_temperature;BMP_pressure;BME280_temperature;BME280_humidity;BME280_pressure;Samples;Min_cycle;Max_cycle;Signal;HPM_P1;HPM_P2
2022/01/02 00:01:43;;;;;;;9.93;6.20;;;10.80;99.90;;;;;;5048350;28;20037;-68
2022/01/02 00:04:13;;;;;;;;;;;10.80;99.90;;;;;;5041850;28;20048;-66
2022/01/02 00:06:46;;;;;;;12.03;5.67;;;10.80;99.90;;;;;;5042267;28;19916;-66
2022/01/02 00:09:35;;;;;;;11.38;6.07;;;10.80;99.90;;;;;;5033853;28;20086;-66
2022/01/02 00:12:05;;;;;;;13.18;6.50;;;10.80;99.90;;;;;;5043569;28;20045;-66
2022/01/02 00:14:35;;;;;;;;;;;10.70;99.90;;;;;;5019112;28;20045;-66
2022/01/02 00:17:06;;;;;;;18.77;7.63;;;10.70;99.90;;;;;;5031743;28;20023;-65
2022/01/02 00:19:33;;;;;;;11.02;6.45;;;10.70;99.90;;;;;;5033545;28;20037;-64
2022/01/02 00:22:01;;;;;;;13.93;7.03;;;10.60;99.90;;;;;;5051189;28;20342;-63
2022/01/02 00:24:28;;;;;;;14.75;7.30;;;10.60;99.90;;;;;;5032456;28;20045;-65
2022/01/02 00:26:56;;;;;;;16.98;7.70;;;10.60;99.90;;;;;;5045829;28;20029;-65
2022/01/02 00:29:22;;;;;;;15.85;7.38;;;10.60;99.90;;;;;;5050715;28;20041;-65
2022/01/02 00:31:48;;;;;;;14.43;7.25;;;10.70;99.90;;;;;;5042069;28;20129;-65
2022/01/02 00:34:15;;;;;;;17.40;7.25;;;10.60;99.90;;;;;;5036055;28;20516;-66
2022/01/02 00:36:40;;;;;;;14.98;7.07;;;10.60;99.90;;;;;;5033975;28;20468;-64
2022/01/02 00:39:06;;;;;;;19.05;7.05;;;10.60;99.90;;;;;;5046455;28;20040;-65
2022/01/02 00:41:43;;;;;;;18.73;7.65;;;10.60;99.90;;;;;;5031528;28;20036;-64
2022/01/02 00:44:23;;;;;;;18.33;8.40;;;10.60;99.90;;;;;;5044076;28;20127;-66
2022/01/02 00:46:52;;;;;;;;;;;10.60;99.90;;;;;;5049786;28;20038;-64
2022/01/02 00:49:24;;;;;;;14.32;7.35;;;10.60;99.90;;;;;;5015543;28;19921;-65
2022/01/02 00:51:58;;;;;;;14.32;7.25;;;10.60;99.90;;;;;;5038673;28;20480;-65
2022/01/02 00:54:28;;;;;;;18.48;7.82;;;10.60;99.90;;;;;;5046477;28;20045;-66
2022/01/02 00:56:57;;;;;;;17.58;8.75;;;10.50;99.90;;;;;;5038665;28;20138;-66
2022/01/02 00:59:28;;;;;;;15.40;7.68;;;10.50;99.90;;;;;;5048763;28;20041;-65
2022/01/02 01:02:02;;;;;;;14.38;7.38;;;10.60;99.90;;;;;;5040724;28;20484;-65
2022/01/02 01:04:33;;;;;;;15.38;8.10;;;10.60;99.90;;;;;;5036706;28;20536;-65
2022/01/02 01:07:04;;;;;;;15.30;7.68;;;10.50;99.90;;;;;;5044710;28;20414;-65
2022/01/02 01:09:31;;;;;;;18.65;8.38;;;10.50;99.90;;;;;;5043628;28;20037;-65
2022/01/02 01:12:02;;;;;;;15.73;8.23;;;10.60;99.90;;;;;;5031015;28;20598;-65
2022/01/02 01:14:29;;;;;;;16.50;8.32;;;10.60;99.90;;;;;;5038508;28;20045;-65
2022/01/02 01:16:55;;;;;;;17.15;8.93;;;10.60;99.90;;;;;;5048407;28;20041;-65
2022/01/02 01:19:22;;;;;;;17.15;8.52;;;10.60;99.90;;;;;;5031582;28;20477;-63
2022/01/02 01:21:49;;;;;;;18.00;8.48;;;10.60;99.90;;;;;;5042922;28;20094;-64
2022/01/02 01:24:14;;;;;;;25.50;8.55;;;10.60;99.90;;;;;;5045235;28;20418;-65
2022/01/02 01:26:40;;;;;;;15.65;8.27;;;10.60;99.90;;;;;;5045650;28;20045;-65
2022/01/02 01:29:06;;;;;;;20.98;8.73;;;10.60;99.90;;;;;;5031554;28;20037;-63
2022/01/02 01:31:32;;;;;;;16.88;9.00;;;10.70;99.90;;;;;;5034103;28;20034;-63
2022/01/02 01:33:57;;;;;;;18.92;8.18;;;10.70;99.90;;;;;;5042415;28;20400;-68
2022/01/02 01:36:23;;;;;;;22.25;8.63;;;10.60;99.90;;;;;;5032119;28;20487;-64
2022/01/02 01:38:48;;;;;;;21.20;8.98;;;10.60;99.90;;;;;;5043612;28;20131;-63
2022/01/02 01:41:27;;;;;;;19.75;8.95;;;10.60;99.90;;;;;;5041585;28;20119;-64
2022/01/02 01:43:54;;;;;;;17.42;9.38;;;10.70;99.90;;;;;;5042797;28;20033;-63
2022/01/02 01:46:20;;;;;;;23.23;9.75;;;10.60;99.90;;;;;;5048894;28;20072;-64
2022/01/02 01:48:51;;;;;;;20.13;9.40;;;10.60;99.90;;;;;;5033846;28;20783;-64
2022/01/02 01:51:16;;;;;;;18.60;8.68;;;10.60;99.90;;;;;;5049380;28;20151;-66
2022/01/02 01:53:42;;;;;;;23.58;9.77;;;10.60;99.90;;;;;;5035281;28;20140;-65
2022/01/02 01:56:07;;;;;;;20.95;9.25;;;10.60;99.90;;;;;;5043529;28;20065;-65
2022/01/02 01:58:33;;;;;;;24.33;9.52;;;10.50;99.90;;;;;;5041402;28;20033;-65
2022/01/02 02:01:00;;;;;;;21.20;9.32;;;10.60;99.90;;;;;;5034083;28;20037;-65
2022/01/02 02:03:26;;;;;;;19.17;9.73;;;10.60;99.90;;;;;;5034860;28;20037;-65
2022/01/02 02:05:51;;;;;;;23.73;9.48;;;10.60;99.90;;;;;;5045234;28;20048;-64
2022/01/02 02:08:17;;;;;;;21.80;9.75;;;10.70;99.90;;;;;;5033042;28;20182;-64
2022/01/02 02:10:46;;;;;;;25.75;9.38;;;10.60;99.90;;;;;;5039298;28;20145;-65
2022/01/02 02:13:11;;;;;;;25.40;10.40;;;10.70;99.90;;;;;;5034533;28;20058;-66
2022/01/02 02:15:37;;;;;;;26.08;9.75;;;10.60;99.90;;;;;;5032510;28;20059;-65
2022/01/02 02:18:03;;;;;;;25.25;11.25;;;10.60;99.90;;;;;;5020663;28;20148;-66
2022/01/02 02:20:31;;;;;;;22.20;9.77;;;10.70;99.90;;;;;;5037570;28;20037;-66
2022/01/02 02:22:59;;;;;;;19.00;10.35;;;10.60;99.90;;;;;;5031792;28;20053;-64
2022/01/02 02:25:27;;;;;;;21.45;9.25;;;10.70;99.90;;;;;;5043512;28;20045;-65
2022/01/02 02:27:55;;;;;;;18.63;10.27;;;10.70;99.90;;;;;;5042143;28;20373;-65
2022/01/02 02:30:22;;;;;;;18.85;9.32;;;10.70;99.90;;;;;;5049311;28;20069;-65
2022/01/02 02:32:48;;;;;;;23.40;9.98;;;10.70;99.90;;;;;;5038106;28;20048;-66
2022/01/02 02:35:15;;;;;;;21.73;9.35;;;10.60;99.90;;;;;;5035803;28;20064;-65
2022/01/02 02:37:42;;;;;;;26.42;9.45;;;10.60;99.90;;;;;;5047079;28;20064;-65
2022/01/02 02:40:10;;;;;;;21.00;8.82;;;10.60;99.90;;;;;;5035938;28;20087;-64
2022/01/02 02:42:46;;;;;;;23.58;9.63;;;10.70;99.90;;;;;;5042622;28;20453;-66
2022/01/02 02:49:24;;;;;;;23.10;9.00;;;10.50;99.90;;;;;;5033120;28;20380;-66
2022/01/02 02:51:34;;;;;;;17.75;9.48;;;10.50;99.90;;;;;;5038761;28;20374;-66
2022/01/02 02:54:00;;;;;;;21.77;9.48;;;10.50;99.90;;;;;;5032292;28;20053;-65
2022/01/02 02:56:41;;;;;;;22.30;9.23;;;10.60;99.90;;;;;;5037532;28;20072;-65
2022/01/02 02:59:07;;;;;;;15.98;8.85;;;10.60;99.90;;;;;;5040179;28;20044;-66
2022/01/02 03:01:33;;;;;;;24.45;10.70;;;10.50;99.90;;;;;;5034981;28;20042;-66
2022/01/02 03:03:58;;;;;;;24.88;10.30;;;10.60;99.90;;;;;;5045773;28;20086;-64
2022/01/02 03:06:24;;;;;;;27.25;9.93;;;10.60;99.90;;;;;;5037277;28;20072;-67
2022/01/02 03:08:51;;;;;;;22.23;10.18;;;10.50;99.90;;;;;;5034410;28;20065;-67
2022/01/02 03:11:20;;;;;;;20.83;10.23;;;10.50;99.90;;;;;;5042183;28;20037;-65
2022/01/02 03:13:49;;;;;;;25.07;10.17;;;10.60;99.90;;;;;;5046920;28;20067;-66
2022/01/02 03:16:15;;;;;;;25.08;10.88;;;10.60;99.90;;;;;;5039727;28;20052;-65
2022/01/02 03:18:41;;;;;;;21.77;10.30;;;10.60;99.90;;;;;;5037286;28;20048;-67
2022/01/02 03:21:08;;;;;;;18.83;9.88;;;10.60;99.90;;;;;;5031816;28;20432;-64
2022/01/02 03:23:34;;;;;;;25.38;10.40;;;10.60;99.90;;;;;;5039388;28;20044;-66
2022/01/02 03:26:00;;;;;;;27.00;10.40;;;10.60;99.90;;;;;;5046090;28;20071;-65
2022/01/02 03:28:25;;;;;;;25.15;10.38;;;10.60;99.90;;;;;;5044851;28;20491;-68
2022/01/02 03:30:51;;;;;;;26.05;9.68;;;10.60;99.90;;;;;;5038853;28;20036;-65
2022/01/02 03:33:17;;;;;;;20.83;9.70;;;10.50;99.90;;;;;;5046461;28;20380;-64
2022/01/02 03:35:43;;;;;;;20.13;9.57;;;10.50;99.90;;;;;;5014092;28;20144;-66
2022/01/02 03:38:09;;;;;;;22.55;10.27;;;10.50;99.90;;;;;;5044746;28;20053;-65
2022/01/02 03:40:35;;;;;;;23.42;10.20;;;10.60;99.90;;;;;;5043174;28;20033;-65
2022/01/02 03:43:01;;;;;;;24.25;10.77;;;10.50;99.90;;;;;;5036307;28;20098;-66
2022/01/02 03:45:26;;;;;;;26.65;10.27;;;10.60;99.90;;;;;;5045544;28;20052;-66
2022/01/02 03:47:52;;;;;;;24.65;10.23;;;10.60;99.90;;;;;;5043397;28;20029;-65
2022/01/02 03:50:18;;;;;;;25.85;10.48;;;10.60;99.90;;;;;;5032678;28;20037;-66
2022/01/02 03:52:44;;;;;;;21.17;10.10;;;10.70;99.90;;;;;;5041911;28;20099;-66
2022/01/02 03:55:10;;;;;;;23.63;10.30;;;10.60;99.90;;;;;;5037682;28;20053;-66
2022/01/02 03:57:37;;;;;;;20.15;9.27;;;10.70;99.90;;;;;;5023242;28;20063;-65
2022/01/02 04:00:06;;;;;;;30.13;10.65;;;10.60;99.90;;;;;;5039555;28;20140;-66
2022/01/02 04:02:31;;;;;;;17.83;8.75;;;10.60;99.90;;;;;;5045322;28;20052;-65
2022/01/02 04:04:57;;;;;;;22.80;9.20;;;10.60;99.90;;;;;;5039762;28;20036;-65
2022/01/02 04:07:22;;;;;;;23.13;9.50;;;10.70;99.90;;;;;;5034906;28;20049;-65
2022/01/02 04:09:50;;;;;;;18.70;8.88;;;10.60;99.90;;;;;;5046849;28;20174;-70
2022/01/02 04:12:16;;;;;;;25.67;9.73;;;10.60;99.90;;;;;;5043176;28;20080;-64
2022/01/02 04:14:42;;;;;;;24.05;9.98;;;10.60;99.90;;;;;;5047087;28;20087;-67
2022/01/02 04:17:07;;;;;;;20.45;8.18;;;10.70;99.90;;;;;;5036367;28;20045;-65
2022/01/02 04:19:33;;;;;;;19.05;9.40;;;10.60;99.90;;;;;;5027359;28;20114;-65
2022/01/02 04:21:58;;;;;;;21.75;9.73;;;10.70;99.90;;;;;;5036320;28;20049;-65
2022/01/02 04:24:24;;;;;;;20.23;9.15;;;10.60;99.90;;;;;;5028955;28;20126;-65
2022/01/02 04:26:49;;;;;;;23.42;9.10;;;10.70;99.90;;;;;;5047109;28;20041;-64
2022/01/02 04:29:15;;;;;;;24.00;10.50;;;10.70;99.90;;;;;;5033364;28;20060;-64
2022/01/02 04:31:40;;;;;;;22.30;9.38;;;10.60;99.90;;;;;;5041304;28;20430;-65
2022/01/02 04:34:06;;;;;;;20.80;9.38;;;10.70;99.90;;;;;;5031079;28;20088;-68
2022/01/02 04:36:31;;;;;;;21.55;9.45;;;10.70;99.90;;;;;;5048098;28;20061;-64
2022/01/02 04:38:57;;;;;;;22.50;9.10;;;10.80;99.90;;;;;;5049270;28;20041;-66
2022/01/02 04:41:23;;;;;;;20.55;9.10;;;10.70;99.90;;;;;;5050372;28;20056;-65
2022/01/02 04:43:48;;;;;;;23.42;9.52;;;10.70;99.90;;;;;;5049065;28;20052;-64
2022/01/02 04:46:14;;;;;;;23.65;9.80;;;10.80;99.90;;;;;;5041188;28;20041;-63
2022/01/02 04:48:39;;;;;;;24.35;9.75;;;10.70;99.90;;;;;;5032992;28;20041;-67
2022/01/02 04:51:05;;;;;;;23.13;9.15;;;10.70;99.90;;;;;;5047470;28;20037;-65
2022/01/02 04:53:31;;;;;;;25.05;9.02;;;10.80;99.90;;;;;;5038764;28;20068;-66
2022/01/02 04:55:56;;;;;;;25.85;9.23;;;10.70;99.90;;;;;;5037458;28;20377;-65
2022/01/02 04:58:22;;;;;;;23.33;8.52;;;10.80;99.90;;;;;;5030628;28;20404;-66
2022/01/02 05:00:48;;;;;;;23.58;9.18;;;10.70;99.90;;;;;;5042953;28;20033;-64
2022/01/02 05:03:13;;;;;;;20.50;9.13;;;10.80;99.90;;;;;;5033526;28;20083;-63
2022/01/02 05:05:39;;;;;;;28.33;9.50;;;10.80;99.90;;;;;;5047209;28;20120;-66
2022/01/02 05:08:04;;;;;;;23.27;8.77;;;10.80;99.90;;;;;;5030789;28;20187;-64
2022/01/02 05:10:30;;;;;;;21.58;8.45;;;10.80;99.90;;;;;;5017607;28;20456;-64
2022/01/02 05:12:56;;;;;;;21.17;8.50;;;10.90;99.90;;;;;;5049082;28;20055;-64
2022/01/02 05:15:22;;;;;;;23.40;8.50;;;10.90;99.90;;;;;;5049799;28;20045;-64
2022/01/02 05:17:47;;;;;;;23.13;8.05;;;10.90;99.90;;;;;;5050773;28;20047;-65
2022/01/02 05:20:13;;;;;;;19.67;8.90;;;10.80;99.90;;;;;;5037064;28;20061;-65
2022/01/02 05:22:38;;;;;;;24.70;7.93;;;10.80;99.90;;;;;;5046540;28;20047;-66
2022/01/02 05:25:05;;;;;;;22.75;8.35;;;10.90;99.90;;;;;;5034921;28;20418;-65
2022/01/02 05:27:30;;;;;;;18.15;7.63;;;10.90;99.90;;;;;;5037474;28;20048;-64
2022/01/02 05:29:56;;;;;;;19.10;7.35;;;11.00;99.90;;;;;;5039044;28;20101;-64
2022/01/02 05:32:22;;;;;;;21.95;7.70;;;10.90;99.90;;;;;;5038285;28;20044;-64
2022/01/02 05:34:48;;;;;;;20.08;7.05;;;11.00;99.90;;;;;;5041898;28;20481;-65
2022/01/02 05:37:13;;;;;;;22.67;7.85;;;11.00;99.90;;;;;;5031582;28;20408;-65
2022/01/02 05:39:39;;;;;;;20.90;7.65;;;11.00;99.90;;;;;;5047203;28;20115;-64
2022/01/02 05:42:05;;;;;;;21.95;8.20;;;11.00;99.90;;;;;;5045646;28;20041;-67
2022/01/02 05:44:31;;;;;;;21.48;7.78;;;11.00;99.90;;;;;;5041162;28;20081;-64
2022/01/02 05:46:57;;;;;;;22.05;7.55;;;11.00;99.90;;;;;;5032875;28;20095;-65
2022/01/02 05:49:23;;;;;;;19.95;7.57;;;11.00;99.90;;;;;;5034315;28;20071;-64
2022/01/02 05:51:48;;;;;;;16.95;7.13;;;11.00;99.90;;;;;;5045156;28;20041;-65
2022/01/02 05:54:14;;;;;;;19.15;7.72;;;11.00;99.90;;;;;;5039250;28;20037;-63
2022/01/02 05:56:40;;;;;;;23.30;8.32;;;11.10;99.90;;;;;;5032184;28;20037;-65
2022/01/02 05:59:05;;;;;;;20.33;7.28;;;11.00;99.90;;;;;;5028866;28;20041;-66
2022/01/02 06:01:31;;;;;;;27.00;7.97;;;11.00;99.90;;;;;;5030308;28;20145;-64
2022/01/02 06:03:57;;;;;;;23.33;7.40;;;11.10;99.90;;;;;;5030310;28;20044;-64
2022/01/02 06:06:22;;;;;;;17.45;7.47;;;11.20;99.90;;;;;;5035409;28;20041;-64
2022/01/02 06:08:48;;;;;;;33.80;7.43;;;11.10;99.90;;;;;;5035046;28;20433;-66
2022/01/02 06:11:13;;;;;;;19.25;8.10;;;11.10;99.90;;;;;;5043310;28;20045;-64
2022/01/02 06:13:40;;;;;;;17.90;6.55;;;11.20;99.90;;;;;;5027337;28;20489;-64
2022/01/02 06:16:07;;;;;;;16.50;7.50;;;11.20;99.90;;;;;;5045899;28;20080;-64
2022/01/02 06:18:32;;;;;;;17.73;6.95;;;11.10;99.90;;;;;;5040188;28;20115;-67
2022/01/02 06:20:58;;;;;;;19.45;7.38;;;11.20;99.90;;;;;;5040343;28;20111;-64
2022/01/02 06:23:24;;;;;;;18.13;6.45;;;11.10;99.90;;;;;;5041075;28;20029;-64
2022/01/02 06:25:49;;;;;;;22.63;6.90;;;11.20;99.90;;;;;;5017783;28;20041;-64
2022/01/02 06:28:15;;;;;;;22.60;7.20;;;11.30;99.90;;;;;;5043722;28;20172;-68
2022/01/02 06:30:40;;;;;;;17.38;7.03;;;11.20;99.90;;;;;;5017874;28;20033;-65
2022/01/02 06:33:06;;;;;;;19.67;6.55;;;11.30;99.90;;;;;;5039390;28;20045;-65
2022/01/02 06:35:34;;;;;;;19.63;6.40;;;11.30;99.90;;;;;;5048139;28;20029;-65
2022/01/02 06:38:08;;;;;;;17.52;6.28;;;11.40;99.90;;;;;;5028911;28;20095;-67
2022/01/02 06:40:34;;;;;;;18.20;5.97;;;11.30;99.90;;;;;;5045343;28;20044;-66
2022/01/02 06:43:00;;;;;;;18.40;5.95;;;11.40;99.90;;;;;;5044216;28;20042;-66
2022/01/02 06:45:25;;;;;;;17.95;6.60;;;11.40;99.90;;;;;;5029740;28;20152;-64
2022/01/02 06:47:51;;;;;;;18.85;6.32;;;11.40;99.90;;;;;;5030127;28;20053;-66
2022/01/02 06:50:16;;;;;;;23.77;5.97;;;11.40;99.90;;;;;;5021082;28;20087;-66
2022/01/02 06:52:42;;;;;;;17.83;5.80;;;11.50;99.90;;;;;;5038211;28;20417;-65
2022/01/02 06:55:08;;;;;;;14.50;5.70;;;11.50;99.90;;;;;;5031060;28;20534;-65
2022/01/02 06:57:34;;;;;;;18.50;5.28;;;11.50;99.90;;;;;;5041968;28;20041;-65
2022/01/02 06:59:59;;;;;;;13.88;5.30;;;11.30;99.90;;;;;;5046100;28;20060;-64
2022/01/02 07:02:25;;;;;;;17.92;5.22;;;11.40;99.90;;;;;;5043537;28;20037;-65
2022/01/02 07:04:50;;;;;;;12.50;5.07;;;11.50;99.90;;;;;;5031947;28;20072;-65
2022/01/02 07:07:16;;;;;;;14.65;5.20;;;11.50;99.90;;;;;;5041118;28;20825;-66
2022/01/02 07:09:41;;;;;;;18.10;5.60;;;11.40;99.90;;;;;;5032323;28;20071;-64
2022/01/02 07:12:07;;;;;;;15.77;5.55;;;11.50;99.90;;;;;;5034106;28;20132;-64
2022/01/02 07:14:33;;;;;;;9.00;4.45;;;11.50;99.90;;;;;;5052824;28;20464;-64
2022/01/02 07:16:58;;;;;;;15.18;5.40;;;11.50;99.90;;;;;;5034042;28;20084;-66
2022/01/02 07:19:24;;;;;;;12.35;5.05;;;11.40;99.90;;;;;;5033533;28;20042;-63
2022/01/02 07:21:51;;;;;;;13.70;5.30;;;11.30;99.90;;;;;;5044032;28;20044;-64
2022/01/02 07:24:18;;;;;;;15.65;5.28;;;11.40;99.90;;;;;;5031017;28;20037;-64
2022/01/02 07:26:43;;;;;;;12.93;5.07;;;11.30;99.90;;;;;;5042336;28;20044;-63
2022/01/02 07:29:10;;;;;;;13.90;4.93;;;11.40;99.90;;;;;;5034005;28;20036;-63
2022/01/02 07:31:37;;;;;;;15.88;5.85;;;11.30;99.90;;;;;;5035942;28;20040;-62
2022/01/02 07:34:03;;;;;;;14.40;5.60;;;11.40;99.90;;;;;;5048359;28;20040;-63
2022/01/02 07:36:29;;;;;;;13.40;5.57;;;11.20;99.90;;;;;;5045771;28;20052;-63
2022/01/02 07:38:55;;;;;;;13.02;6.40;;;11.10;99.90;;;;;;5035965;28;20041;-64
2022/01/02 07:41:20;;;;;;;15.43;6.03;;;11.10;99.90;;;;;;5041989;28;20037;-63
2022/01/02 07:43:46;;;;;;;14.63;6.00;;;11.10;99.90;;;;;;5028440;28;20049;-63
2022/01/02 07:46:12;;;;;;;16.05;5.47;;;11.10;99.90;;;;;;5047725;28;20111;-63
2022/01/02 07:48:37;;;;;;;14.80;5.53;;;11.20;99.90;;;;;;5045930;28;20036;-64
2022/01/02 07:51:03;;;;;;;12.80;5.63;;;11.20;99.90;;;;;;5040955;28;20404;-64
2022/01/02 07:53:28;;;;;;;14.85;5.70;;;11.20;99.90;;;;;;5037394;28;20048;-64
2022/01/02 07:55:54;;;;;;;11.90;5.93;;;11.00;99.90;;;;;;5033010;28;20073;-64
2022/01/02 07:58:19;;;;;;;13.20;5.68;;;11.00;99.90;;;;;;5027935;28;20048;-64
2022/01/02 08:00:45;;;;;;;15.15;5.47;;;11.00;99.90;;;;;;5028789;28;20033;-64
2022/01/02 08:03:11;;;;;;;16.02;5.90;;;11.10;99.90;;;;;;5039252;28;20069;-63
2022/01/02 08:05:36;;;;;;;16.92;5.90;;;11.00;99.90;;;;;;5043623;28;20067;-64
2022/01/02 08:08:02;;;;;;;17.02;6.22;;;11.00;99.90;;;;;;5044190;28;20115;-65
2022/01/02 08:10:28;;;;;;;12.63;6.20;;;11.00;99.90;;;;;;5015930;28;20044;-65
2022/01/02 08:12:54;;;;;;;13.65;6.38;;;11.10;99.90;;;;;;5042522;28;20075;-65
2022/01/02 08:15:20;;;;;;;12.45;6.47;;;11.00;99.90;;;;;;5053603;28;20088;-63
2022/01/02 08:17:46;;;;;;;14.63;6.20;;;10.90;99.90;;;;;;5047581;28;20038;-64
2022/01/02 08:20:12;;;;;;;14.80;6.28;;;11.00;99.90;;;;;;5049442;28;20497;-62
2022/01/02 08:22:38;;;;;;;12.13;5.82;;;11.00;99.90;;;;;;5052659;28;20033;-66
2022/01/02 08:25:05;;;;;;;16.10;6.25;;;10.90;99.90;;;;;;5041328;28;20120;-63
2022/01/02 08:27:30;;;;;;;12.75;6.20;;;10.90;99.90;;;;;;5043129;28;20448;-64
2022/01/02 08:29:56;;;;;;;17.23;6.30;;;10.90;99.90;;;;;;5049661;28;20053;-63
2022/01/02 08:32:22;;;;;;;10.70;5.80;;;10.90;99.90;;;;;;5046088;28;20056;-63
2022/01/02 08:34:47;;;;;;;11.35;6.32;;;10.90;99.90;;;;;;5053731;28;20354;-64
2022/01/02 08:37:16;;;;;;;13.20;6.00;;;10.80;99.90;;;;;;5045321;28;20040;-64
2022/01/02 08:39:42;;;;;;;15.65;6.13;;;10.90;99.90;;;;;;5050680;28;20044;-64
2022/01/02 08:42:09;;;;;;;14.00;5.57;;;10.90;99.90;;;;;;5017069;28;20103;-64
2022/01/02 08:44:39;;;;;;;13.32;6.13;;;10.90;99.90;;;;;;5044289;28;20033;-63
2022/01/02 08:47:06;;;;;;;17.50;6.28;;;10.80;99.90;;;;;;5034410;28;20391;-64
2022/01/02 08:49:32;;;;;;;15.52;5.40;;;10.80;99.90;;;;;;5033398;28;20056;-69
2022/01/02 08:51:58;;;;;;;14.73;6.18;;;10.80;99.90;;;;;;5038636;28;20075;-65
2022/01/02 08:54:23;;;;;;;12.05;5.78;;;10.90;99.90;;;;;;5047326;28;20068;-63
2022/01/02 08:56:49;;;;;;;14.52;5.18;;;10.80;99.90;;;;;;5049393;28;20039;-65
2022/01/02 08:59:15;;;;;;;12.32;5.25;;;10.90;99.90;;;;;;5045435;28;20037;-65
2022/01/02 09:01:40;;;;;;;17.33;5.32;;;10.80;99.90;;;;;;5041947;28;20094;-63
2022/01/02 09:04:06;;;;;;;15.85;6.28;;;10.80;99.90;;;;;;5052536;28;20076;-63
2022/01/02 09:06:31;;;;;;;14.70;6.78;;;10.80;99.90;;;;;;5042698;28;20037;-64
2022/01/02 09:08:57;;;;;;;10.25;5.40;;;10.80;99.90;;;;;;5034537;28;20515;-64
2022/01/02 09:11:23;;;;;;;16.75;5.60;;;10.80;99.90;;;;;;5042799;28;20453;-63
2022/01/02 09:13:49;;;;;;;15.85;6.50;;;10.80;99.90;;;;;;5045340;28;20053;-65
2022/01/02 09:16:15;;;;;;;12.23;5.88;;;10.80;99.90;;;;;;5042397;28;20040;-64
2022/01/02 09:18:40;;;;;;;15.80;6.18;;;10.80;99.90;;;;;;5028995;28;20056;-64
2022/01/02 09:21:06;;;;;;;13.27;5.38;;;10.90;99.90;;;;;;5036905;28;20048;-65
2022/01/02 09:23:31;;;;;;;16.38;5.97;;;10.80;99.90;;;;;;5044575;28;20040;-65
2022/01/02 09:25:57;;;;;;;10.80;5.63;;;10.90;99.90;;;;;;5043298;28;20087;-64
2022/01/02 09:28:22;;;;;;;13.82;6.85;;;10.90;99.90;;;;;;5038747;28;20044;-66
2022/01/02 09:30:48;;;;;;;16.13;5.90;;;10.90;99.90;;;;;;5030043;28;20444;-66
2022/01/02 09:33:14;;;;;;;10.85;5.70;;;10.90;99.90;;;;;;5036443;28;20037;-67
2022/01/02 09:35:41;;;;;;;13.32;6.22;;;11.00;99.90;;;;;;5033609;28;20135;-63
2022/01/02 09:38:08;;;;;;;8.77;5.43;;;11.00;99.90;;;;;;5048877;28;20045;-68
2022/01/02 09:40:34;;;;;;;11.50;5.05;;;11.10;99.90;;;;;;5048976;28;20041;-65
2022/01/02 09:43:02;;;;;;;16.35;6.00;;;11.10;99.90;;;;;;5037638;28;20037;-65
2022/01/02 09:45:28;;;;;;;13.80;5.88;;;11.00;99.90;;;;;;5034980;28;20113;-64
2022/01/02 09:47:55;;;;;;;12.18;5.95;;;11.00;99.90;;;;;;5029552;28;20361;-64
2022/01/02 09:50:21;;;;;;;16.08;6.07;;;11.00;99.90;;;;;;5039146;28;20037;-63
2022/01/02 09:52:48;;;;;;;16.00;5.80;;;11.10;99.90;;;;;;5043959;28;20078;-65
2022/01/02 09:55:14;;;;;;;11.07;5.50;;;11.10;99.90;;;;;;5044699;28;20819;-65
2022/01/02 09:57:44;;;;;;;11.73;5.47;;;11.10;99.90;;;;;;5036027;28;20045;-64
2022/01/02 10:00:12;;;;;;;10.55;5.30;;;11.10;99.90;;;;;;5046875;28;20033;-64
2022/01/02 10:02:55;;;;;;;8.95;5.60;;;11.20;99.90;;;;;;5050110;28;20461;-66
2022/01/02 10:05:24;;;;;;;11.25;5.43;;;11.20;99.90;;;;;;5050863;28;20063;-63
2022/01/02 10:07:50;;;;;;;11.68;5.18;;;11.10;99.90;;;;;;5051115;28;20044;-65
2022/01/02 10:10:16;;;;;;;12.90;6.25;;;11.20;99.90;;;;;;5051326;28;20060;-64
2022/01/02 10:12:41;;;;;;;10.23;5.57;;;11.10;99.90;;;;;;5036235;28;20053;-67
2022/01/02 10:15:20;;;;;;;13.10;5.80;;;11.10;99.90;;;;;;5030272;28;20066;-64
2022/01/02 10:17:54;;;;;;;10.98;6.47;;;11.10;99.90;;;;;;5014420;28;20494;-67
2022/01/02 10:20:22;;;;;;;12.52;6.50;;;11.10;99.90;;;;;;5014499;28;20049;-66
2022/01/02 10:23:06;;;;;;;9.93;6.28;;;11.10;99.90;;;;;;5039336;28;20492;-65
2022/01/02 10:25:47;;;;;;;11.35;6.07;;;11.10;99.90;;;;;;5041046;28;20032;-64
2022/01/02 10:28:30;;;;;;;15.15;6.90;;;11.10;99.90;;;;;;5029985;28;20132;-66
2022/01/02 10:31:09;;;;;;;11.32;6.43;;;11.10;99.90;;;;;;5046046;28;20048;-65
2022/01/02 10:33:50;;;;;;;11.95;6.88;;;11.10;99.90;;;;;;5043334;28;20043;-67
2022/01/02 10:36:24;;;;;;;12.80;6.78;;;11.10;99.90;;;;;;5046879;28;20092;-66
2022/01/02 10:39:09;;;;;;;12.35;6.57;;;11.10;99.90;;;;;;5039897;28;20053;-64
2022/01/02 10:41:38;;;;;;;15.52;7.57;;;11.10;99.90;;;;;;5049536;28;20126;-63
2022/01/02 10:44:30;;;;;;;11.18;6.50;;;11.10;99.90;;;;;;5032523;28;20071;-67
2022/01/02 10:47:08;;;;;;;12.80;6.70;;;11.10;99.90;;;;;;5046707;28;20076;-65
2022/01/02 10:49:52;;;;;;;12.40;7.07;;;11.10;99.90;;;;;;5016062;28;20037;-65
2022/01/02 10:52:27;;;;;;;10.02;6.68;;;11.20;99.90;;;;;;5017915;28;20041;-64
2022/01/02 10:54:53;;;;;;;16.08;8.18;;;11.20;99.90;;;;;;5031712;28;20133;-66
2022/01/02 10:57:20;;;;;;;14.93;7.53;;;11.20;99.90;;;;;;5030510;28;20132;-67
2022/01/02 10:59:46;;;;;;;12.73;6.65;;;11.20;99.90;;;;;;5030342;28;20029;-67
2022/01/02 11:02:13;;;;;;;12.10;7.15;;;11.30;99.90;;;;;;5023066;28;20049;-67
2022/01/02 11:04:46;;;;;;;11.82;6.20;;;11.30;99.90;;;;;;5019098;28;20447;-65
2022/01/02 11:07:21;;;;;;;9.60;5.80;;;11.30;99.90;;;;;;5021015;28;20569;-65
2022/01/02 11:09:47;;;;;;;12.13;6.70;;;11.30;99.90;;;;;;5042133;28;20037;-65
2022/01/02 11:12:13;;;;;;;12.68;6.53;;;11.30;99.90;;;;;;5047785;28;20051;-65
2022/01/02 11:14:39;;;;;;;12.45;6.32;;;11.30;99.90;;;;;;5044051;28;20469;-66
2022/01/02 11:17:05;;;;;;;12.48;6.20;;;11.30;99.90;;;;;;5049915;28;20044;-66
2022/01/02 11:19:31;;;;;;;9.93;5.80;;;11.20;99.90;;;;;;5041980;28;20563;-65
2022/01/02 11:21:57;;;;;;;9.60;6.80;;;11.20;99.90;;;;;;5048607;28;20483;-67
2022/01/02 11:24:26;;;;;;;12.27;6.32;;;11.20;99.90;;;;;;5047272;28;20041;-65
2022/01/02 11:27:25;;;;;;;10.52;5.72;;;11.10;99.90;;;;;;5030685;28;20061;-65
2022/01/02 11:29:51;;;;;;;15.07;6.22;;;11.20;99.90;;;;;;5043116;28;20116;-66
2022/01/02 11:32:22;;;;;;;14.77;5.57;;;11.10;99.90;;;;;;5047708;28;20115;-66
2022/01/02 11:34:48;;;;;;;11.85;6.35;;;11.10;99.90;;;;;;5028928;28;20103;-66
2022/01/02 11:37:26;;;;;;;10.85;6.28;;;11.00;99.90;;;;;;5047589;28;20112;-66
2022/01/02 11:39:58;;;;;;;11.32;5.88;;;11.00;99.90;;;;;;5044346;28;20062;-68
2022/01/02 11:42:36;;;;;;;9.20;5.82;;;11.10;99.90;;;;;;5035872;28;20037;-66
2022/01/02 11:45:31;;;;;;;11.25;6.32;;;11.10;99.90;;;;;;5041284;28;20049;-68
2022/01/02 11:47:57;;;;;;;10.45;5.68;;;11.10;99.90;;;;;;5021615;28;20084;-68
2022/01/02 11:50:35;;;;;;;11.85;5.95;;;11.00;99.90;;;;;;5038004;28;20469;-68
2022/01/02 11:53:13;;;;;;;16.15;6.72;;;11.00;99.90;;;;;;5040384;28;20050;-69
2022/01/02 11:55:40;;;;;;;12.15;6.63;;;11.00;99.90;;;;;;5042202;28;20045;-68
2022/01/02 11:58:07;;;;;;;11.93;5.60;;;11.00;99.90;;;;;;5038142;28;20486;-67
2022/01/02 12:00:41;;;;;;;10.18;6.05;;;11.00;99.90;;;;;;5028357;28;20142;-67
2022/01/02 12:03:43;;;;;;;13.55;6.70;;;11.00;99.90;;;;;;5036077;28;20037;-67
2022/01/02 12:06:35;;;;;;;13.05;6.28;;;11.00;99.90;;;;;;5028681;28;20405;-66
2022/01/02 12:09:04;;;;;;;10.25;6.35;;;11.00;99.90;;;;;;5033381;28;20056;-66
2022/01/02 12:11:40;;;;;;;10.52;5.50;;;11.00;99.90;;;;;;5029187;28;20042;-66
2022/01/02 12:14:15;;;;;;;9.73;4.90;;;11.00;99.90;;;;;;5028271;28;20096;-67
2022/01/02 12:16:42;;;;;;;12.95;5.65;;;11.00;99.90;;;;;;5028706;28;20102;-67
2022/01/02 12:19:09;;;;;;;8.77;5.32;;;11.00;99.90;;;;;;5027356;28;20159;-65
2022/01/02 12:21:36;;;;;;;11.25;5.20;;;11.00;99.90;;;;;;5031073;28;20182;-68
2022/01/02 12:24:05;;;;;;;9.95;4.57;;;11.00;99.90;;;;;;5048860;28;20554;-70
2022/01/02 12:26:33;;;;;;;9.13;4.05;;;11.00;99.90;;;;;;5041508;28;20037;-69
2022/01/02 12:29:06;;;;;;;10.60;4.32;;;11.00;99.90;;;;;;5047324;28;20043;-67
2022/01/02 12:31:43;;;;;;;9.82;4.30;;;11.00;99.90;;;;;;5048966;28;20041;-67
2022/01/02 12:34:14;;;;;;;13.00;3.97;;;11.00;99.90;;;;;;5038188;28;20037;-69
2022/01/02 12:36:42;;;;;;;11.93;3.53;;;11.00;99.90;;;;;;5037761;28;20110;-68
2022/01/02 12:39:11;;;;;;;12.27;3.38;;;11.00;99.90;;;;;;5030007;28;20046;-66
2022/01/02 12:41:40;;;;;;;12.82;3.72;;;11.00;99.90;;;;;;5013960;28;20480;-67
2022/01/02 12:44:13;;;;;;;7.38;2.97;;;11.00;99.90;;;;;;5035918;28;20122;-68
2022/01/02 12:46:59;;;;;;;11.80;3.17;;;11.00;99.90;;;;;;5016151;28;20037;-67